Messwerte St.Paul

Temperatur

Temperatur
°C
1574161200 2.00 2.00 6
1574164800 3.00 3.00 6
1574168400 4.00 4.00 4
1574172000 5.00 5.00 4
1574175600 6.00 6.00 4
1574179200 7.00 7.00 3
1574182800 8.00 8.00 3
1574186400 9.00 9.00 2
1574190000 10.00 10.00 1
1574193600 11.00 11.00 1
1574197200 12.00 12.00 1
1574200800 13.00 13.00 1
1574204400 14.00 14.00 1
1574208000 15.00 15.00 1
1574211600 16.00 16.00 1
1574215200 17.00 17.00 1
1574218800 18.00 18.00 1
1574222400 19.00 19.00 1
1574226000 20.00 20.00 2
1574229600 21.00 21.00
1574233200 22.00 22.00 1
1574236800 23.00 23.00 1
1574240400 0.00 0.00
1574244000 1.00 1.00 1

Aktuellste Messwerte

Wettercharakter
Wetter: bedeckt, etwas Schnee
Temperatur
1 °C
Feuchtigkeit
80 %
Wind
45 km/hWindrichtung: Nordwest
Böen
60 km/h
Luftdruck
981 hPa
Messzeit: 20. November 2019, 2.00Datenquelle: METAR

Weitere Messstationen in der Nähe

Messstation Temperatur Entfernung
St. George -1 °C 72 km
Unalaska 5 °C 429 km
Toksook Bay - 476 km

Wind

Windrichtung Böen Mittelwind
° km/h km/h
1574161200 2.00 1.00 - 2.00 60° 60 40
1574164800 3.00 2.00 - 3.00 60° 60 45
1574168400 4.00 3.00 - 4.00 50° 70 50
1574172000 5.00 4.00 - 5.00 50° 65 50
1574175600 6.00 5.00 - 6.00 40° 65 45
1574179200 7.00 6.00 - 7.00 30° 65 45
1574182800 8.00 7.00 - 8.00 40° 70 60
1574186400 9.00 8.00 - 9.00 30° 70 45
1574190000 10.00 9.00 - 10.00 20° 60 45
1574193600 11.00 10.00 - 11.00 20° 65 45
1574197200 12.00 11.00 - 12.00 10° 65 45
1574200800 13.00 12.00 - 13.00 10° 70 50
1574204400 14.00 13.00 - 14.00 10° 70 50
1574208000 15.00 14.00 - 15.00 10° 70 50
1574211600 16.00 15.00 - 16.00 10° 60 45
1574215200 17.00 16.00 - 17.00 360° 70 50
1574218800 18.00 17.00 - 18.00 360° 70 50
1574222400 19.00 18.00 - 19.00 350° 60 45
1574226000 20.00 19.00 - 20.00 340° 70 50
1574229600 21.00 20.00 - 21.00
1574233200 22.00 21.00 - 22.00 330° 70 50
1574236800 23.00 22.00 - 23.00 330° 60 45
1574240400 0.00 23.00 - 0.00
1574244000 1.00 0.00 - 1.00 320° 60 45

Ihre Wetterstation

Fehlt Ihre Wetterstation auf unserem Portal?

Schreiben Sie an network@meteonews.ch

Klima

Wann ist es am wärmsten? Wann regnet es am wenigsten? Unsere Klimadaten geben Auskunft.